Time;durP1;ratioP1;P1;durP2;ratioP2;P2;SDS_P1;SDS_P2;PMS_P1;PMS_P2;Temp;Humidity;BMP_temperature;BMP_pressure;BME280_temperature;BME280_humidity;BME280_pressure;Samples;Min_cycle;Max_cycle;Signal;HPM_P1;HPM_P2
2022/10/14 00:00:32;;;;;;;33.70;21.83;;;359.20;2329.60;;;;;;5054079;28;20017;-77
2022/10/14 00:02:58;;;;;;;33.83;21.15;;;359.20;2329.60;;;;;;5035990;28;20033;-79
2022/10/14 00:05:23;;;;;;;27.50;19.50;;;359.10;2329.60;;;;;;5039990;28;20029;-76
2022/10/14 00:07:49;;;;;;;33.70;21.05;;;359.10;2329.60;;;;;;5033630;28;20118;-76
2022/10/14 00:10:15;;;;;;;29.40;20.98;;;359.00;2329.60;;;;;;5054071;28;20025;-78
2022/10/14 00:12:41;;;;;;;32.83;21.95;;;359.10;2329.60;;;;;;5037285;28;20025;-77
2022/10/14 00:15:07;;;;;;;32.92;21.05;;;359.00;2329.60;;;;;;5042503;28;20110;-76
2022/10/14 00:17:33;;;;;;;30.48;19.83;;;359.00;2329.60;;;;;;5021705;28;20368;-76
2022/10/14 00:19:59;;;;;;;29.90;20.77;;;359.00;2329.60;;;;;;5047113;28;20033;-77
2022/10/14 00:22:25;;;;;;;32.72;21.52;;;359.00;2329.60;;;;;;5046836;28;20021;-82
2022/10/14 00:24:51;;;;;;;35.17;19.65;;;359.00;2329.60;;;;;;5048670;28;20110;-82
2022/10/14 00:27:17;;;;;;;31.45;19.30;;;359.00;2329.60;;;;;;5016478;28;20113;-80
2022/10/14 00:29:42;;;;;;;34.67;21.23;;;359.00;2329.60;;;;;;5036520;28;20467;-80
2022/10/14 00:32:08;;;;;;;33.38;22.25;;;358.90;2329.60;;;;;;5035808;28;20079;-77
2022/10/14 00:34:35;;;;;;;27.85;19.85;;;358.80;2329.60;;;;;;5038799;28;20440;-78
2022/10/14 00:37:00;;;;;;;32.17;20.67;;;358.80;2329.60;;;;;;5040317;28;20025;-76
2022/10/14 00:39:26;;;;;;;33.13;22.73;;;358.80;2329.60;;;;;;5053587;28;20090;-77
2022/10/14 00:41:52;;;;;;;31.63;21.13;;;358.80;2329.60;;;;;;5039121;28;20026;-76
2022/10/14 00:44:18;;;;;;;35.47;21.90;;;358.80;2329.60;;;;;;5053808;28;20397;-76
2022/10/14 00:46:46;;;;;;;34.58;21.45;;;358.80;2329.60;;;;;;5035342;28;20060;-78
2022/10/14 00:49:19;;;;;;;29.65;20.85;;;358.80;2329.60;;;;;;5053414;28;20025;-76
2022/10/14 00:51:53;;;;;;;34.65;20.52;;;358.80;2329.60;;;;;;5040775;28;20032;-76
2022/10/14 00:54:22;;;;;;;42.22;22.02;;;;;;;;;;5048191;28;20028;-77
2022/10/14 00:56:48;;;;;;;33.25;22.80;;;358.60;2329.60;;;;;;5027474;28;20032;-75
2022/10/14 00:59:15;;;;;;;34.90;22.17;;;358.60;2329.60;;;;;;5052961;28;20017;-76
2022/10/14 01:01:41;;;;;;;28.77;19.98;;;358.70;2329.60;;;;;;5053014;28;20083;-77
2022/10/14 01:04:06;;;;;;;31.65;20.25;;;358.60;2329.60;;;;;;5052543;28;20053;-76
2022/10/14 01:06:51;;;;;;;39.05;22.02;;;358.60;2329.60;;;;;;5031428;28;20017;-76
2022/10/14 01:09:34;;;;;;;30.23;19.75;;;358.60;2329.60;;;;;;5046573;28;20057;-77
2022/10/14 01:12:06;;;;;;;32.42;21.23;;;358.40;2329.60;;;;;;5034817;28;20078;-77
2022/10/14 01:14:37;;;;;;;30.85;20.70;;;358.40;2329.60;;;;;;5034987;28;20078;-79
2022/10/14 01:17:06;;;;;;;30.85;21.33;;;333.70;2329.60;;;;;;5034368;28;20036;-75
2022/10/14 01:19:44;;;;;;;31.98;20.60;;;333.70;2329.60;;;;;;5034256;28;20159;-80
2022/10/14 01:22:28;;;;;;;33.92;21.65;;;333.70;2329.60;;;;;;5052657;28;20081;-77
2022/10/14 01:25:43;;;;;;;32.55;22.88;;;333.70;2329.60;;;;;;5052328;28;20025;-76
2022/10/14 01:28:27;;;;;;;38.50;23.65;;;333.70;2329.60;;;;;;4950652;29;20070;-76
2022/10/14 01:31:02;;;;;;;33.00;22.67;;;333.60;2329.60;;;;;;4936288;28;20038;-76
2022/10/14 01:33:35;;;;;;;37.00;24.60;;;333.60;2329.60;;;;;;4923329;29;20039;-80
2022/10/14 01:36:21;;;;;;;35.72;22.35;;;333.70;2329.60;;;;;;4940148;29;20043;-75
2022/10/14 01:38:59;;;;;;;39.13;24.17;;;333.70;2329.60;;;;;;4933296;29;20071;-76
2022/10/14 01:41:27;;;;;;;36.42;23.50;;;333.70;2329.60;;;;;;4936910;29;20040;-76
2022/10/14 01:43:56;;;;;;;39.08;24.20;;;333.70;2329.60;;;;;;4933146;29;20055;-76
2022/10/14 01:46:25;;;;;;;40.20;23.83;;;333.70;2329.60;;;;;;4933202;29;20620;-76
2022/10/14 01:48:56;;;;;;;38.33;25.13;;;333.70;2329.60;;;;;;4933028;29;20035;-76
2022/10/14 01:51:32;;;;;;;34.08;24.70;;;333.60;2329.60;;;;;;4927167;29;20039;-77
2022/10/14 01:54:11;;;;;;;34.25;23.63;;;333.60;2329.60;;;;;;4948780;29;20518;-78
2022/10/14 01:56:38;;;;;;;44.47;26.30;;;333.60;2329.60;;;;;;4952317;29;20086;-76
2022/10/14 01:59:05;;;;;;;37.45;24.85;;;333.60;2329.60;;;;;;4935742;29;20043;-77
2022/10/14 02:01:33;;;;;;;42.20;24.40;;;333.60;2329.60;;;;;;4943743;29;20031;-80
2022/10/14 02:03:59;;;;;;;36.80;23.67;;;333.60;2329.60;;;;;;4967987;28;20499;-76
2022/10/14 02:06:37;;;;;;;38.92;24.52;;;333.50;2329.60;;;;;;5034101;28;20025;-76
2022/10/14 02:09:17;;;;;;;39.33;24.40;;;333.60;2329.60;;;;;;5051265;28;20429;-76
2022/10/14 02:12:03;;;;;;;34.88;22.83;;;333.60;2329.60;;;;;;5040821;28;20021;-76
2022/10/14 02:14:48;;;;;;;39.00;24.07;;;333.60;2329.60;;;;;;5051385;28;20037;-77
2022/10/14 02:17:28;;;;;;;34.80;23.98;;;333.50;2329.60;;;;;;5052037;28;20254;-80
2022/10/14 02:20:19;;;;;;;37.58;23.52;;;333.60;2329.60;;;;;;5033836;28;20356;-79
2022/10/14 02:22:50;;;;;;;45.42;25.15;;;333.60;2329.60;;;;;;4951397;29;20435;-76
2022/10/14 02:25:28;;;;;;;40.55;24.77;;;333.60;2329.60;;;;;;4951710;29;20047;-75
2022/10/14 02:27:56;;;;;;;40.67;24.48;;;333.70;2329.60;;;;;;4951445;29;20414;-75
2022/10/14 02:30:22;;;;;;;42.90;25.30;;;333.60;2329.60;;;;;;4951828;29;20056;-75
2022/10/14 02:32:50;;;;;;;44.28;25.00;;;333.60;2329.60;;;;;;4951699;29;20486;-75
2022/10/14 02:35:20;;;;;;;40.55;23.77;;;333.60;2329.60;;;;;;4951740;29;20066;-75
2022/10/14 02:37:47;;;;;;;40.40;25.55;;;333.50;2329.60;;;;;;4939739;29;20056;-75
2022/10/14 02:40:19;;;;;;;40.15;23.92;;;333.50;2329.60;;;;;;4932916;29;20050;-75
2022/10/14 02:42:45;;;;;;;37.50;23.45;;;333.50;2329.60;;;;;;4940701;29;20023;-75
2022/10/14 02:45:13;;;;;;;44.45;25.33;;;333.50;2329.60;;;;;;4937955;29;20035;-75
2022/10/14 02:47:39;;;;;;;39.85;24.02;;;333.60;2329.60;;;;;;4945202;29;20075;-76
2022/10/14 02:50:05;;;;;;;40.95;25.67;;;333.60;2329.60;;;;;;4944642;29;20520;-75
2022/10/14 02:52:31;;;;;;;35.95;24.85;;;333.50;2329.60;;;;;;4946862;29;20050;-75
2022/10/14 02:54:56;;;;;;;36.50;24.35;;;333.40;2329.60;;;;;;4942789;29;20490;-75
2022/10/14 02:57:22;;;;;;;37.00;24.48;;;333.40;2329.60;;;;;;4948997;29;20103;-76
2022/10/14 02:59:48;;;;;;;35.20;25.27;;;333.40;2329.60;;;;;;4993228;28;20045;-76
2022/10/14 03:02:13;;;;;;;37.15;24.15;;;333.40;2329.60;;;;;;5051084;28;20024;-75
2022/10/14 03:04:39;;;;;;;35.17;23.90;;;333.30;2329.60;;;;;;5051280;28;20379;-76
2022/10/14 03:07:05;;;;;;;37.85;22.92;;;333.30;2329.60;;;;;;5033240;28;20025;-75
2022/10/14 03:09:31;;;;;;;40.22;23.80;;;333.20;2329.60;;;;;;5051283;28;20025;-75
2022/10/14 03:11:56;;;;;;;38.97;22.08;;;333.30;2329.60;;;;;;5051228;28;20029;-76
2022/10/14 03:14:22;;;;;;;43.90;24.00;;;333.30;2329.60;;;;;;5033336;28;20538;-77
2022/10/14 03:16:48;;;;;;;34.45;23.60;;;333.30;2329.60;;;;;;5042974;28;20100;-76
2022/10/14 03:19:14;;;;;;;34.90;22.83;;;333.30;2329.60;;;;;;5034329;28;20486;-75
2022/10/14 03:21:39;;;;;;;32.03;22.00;;;333.30;2329.60;;;;;;5037006;28;20032;-76
2022/10/14 03:24:05;;;;;;;30.98;20.40;;;333.20;2329.60;;;;;;5036809;28;20051;-76
2022/10/14 03:26:31;;;;;;;33.42;23.23;;;333.10;2329.60;;;;;;5054888;28;20458;-75
2022/10/14 03:28:57;;;;;;;34.63;20.98;;;333.10;2329.60;;;;;;5036738;28;20064;-75
2022/10/14 03:31:22;;;;;;;32.45;21.98;;;333.10;2329.60;;;;;;5054952;28;20112;-75
2022/10/14 03:33:48;;;;;;;33.88;20.75;;;333.10;2329.60;;;;;;5046069;28;20025;-75
2022/10/14 03:36:14;;;;;;;35.72;21.25;;;333.20;2329.60;;;;;;5031580;28;20072;-77
2022/10/14 03:38:40;;;;;;;29.40;20.02;;;333.20;2329.60;;;;;;5054509;28;20078;-76
2022/10/14 03:41:05;;;;;;;27.33;18.83;;;333.20;2329.60;;;;;;5028145;28;20487;-75
2022/10/14 03:43:31;;;;;;;31.23;21.05;;;333.30;2329.60;;;;;;5048631;28;20021;-79
2022/10/14 03:45:57;;;;;;;31.70;19.67;;;333.30;2329.60;;;;;;5017036;28;20099;-75
2022/10/14 03:48:23;;;;;;;30.75;20.25;;;333.20;2329.60;;;;;;5047418;28;20056;-80
2022/10/14 03:50:48;;;;;;;32.40;20.35;;;333.20;2329.60;;;;;;5049793;28;20037;-77
2022/10/14 03:53:14;;;;;;;30.00;19.83;;;333.20;2329.60;;;;;;5045256;28;20013;-75
2022/10/14 03:55:40;;;;;;;29.17;19.83;;;333.10;2329.60;;;;;;5054136;28;20067;-75
2022/10/14 03:58:06;;;;;;;33.95;21.83;;;333.10;2329.60;;;;;;5054486;28;20053;-79
2022/10/14 04:00:34;;;;;;;31.55;20.65;;;333.10;2329.60;;;;;;5053344;28;20049;-78
2022/10/14 04:03:00;;;;;;;39.08;21.17;;;333.10;2329.60;;;;;;5023576;28;20037;-75
2022/10/14 04:05:31;;;;;;;27.83;19.20;;;333.20;2329.60;;;;;;5054097;28;20083;-76
2022/10/14 04:07:57;;;;;;;31.35;20.50;;;333.10;2329.60;;;;;;5035944;28;20463;-75
2022/10/14 04:10:23;;;;;;;32.42;20.70;;;333.10;2329.60;;;;;;5054314;28;20036;-76
2022/10/14 04:12:49;;;;;;;33.28;21.35;;;333.10;2329.60;;;;;;5053885;28;20028;-76
2022/10/14 04:15:15;;;;;;;34.25;20.20;;;333.20;2329.60;;;;;;5035825;28;20037;-76
2022/10/14 04:17:41;;;;;;;35.97;21.33;;;333.20;2329.60;;;;;;5053823;28;20048;-79
2022/10/14 04:20:07;;;;;;;28.60;20.30;;;333.20;2329.60;;;;;;5054018;28;20111;-76
2022/10/14 04:22:33;;;;;;;31.05;20.98;;;333.10;2329.60;;;;;;5053610;28;20078;-76
2022/10/14 04:24:59;;;;;;;29.08;18.73;;;333.00;2329.60;;;;;;5053870;28;20045;-75
2022/10/14 04:27:25;;;;;;;28.08;20.35;;;333.10;2329.60;;;;;;5041977;28;20030;-81
2022/10/14 04:29:51;;;;;;;31.98;19.92;;;332.90;2329.60;;;;;;5046900;28;20036;-76
2022/10/14 04:32:18;;;;;;;30.92;20.73;;;332.80;2329.60;;;;;;5043684;28;20021;-75
2022/10/14 04:34:43;;;;;;;27.02;19.52;;;332.90;2329.60;;;;;;5053548;28;20033;-76
2022/10/14 04:37:09;;;;;;;29.50;19.63;;;308.10;2304.00;;;;;;5053797;28;20048;-75
2022/10/14 04:39:35;;;;;;;28.25;17.73;;;308.10;2304.00;;;;;;5035566;28;20033;-80
2022/10/14 04:42:01;;;;;;;34.45;19.77;;;308.10;2304.00;;;;;;5037472;28;20017;-75
2022/10/14 04:44:26;;;;;;;27.55;18.38;;;308.00;2304.00;;;;;;5041944;28;20033;-76
2022/10/14 04:46:52;;;;;;;24.15;18.58;;;307.90;2304.00;;;;;;5053539;28;20092;-79
2022/10/14 04:49:18;;;;;;;26.08;17.85;;;307.90;2304.00;;;;;;5053349;28;20029;-76
2022/10/14 04:51:44;;;;;;;28.85;18.95;;;307.90;2304.00;;;;;;5023584;28;20029;-75
2022/10/14 04:54:09;;;;;;;30.15;19.45;;;308.10;2304.00;;;;;;5033037;28;20029;-75
2022/10/14 04:56:35;;;;;;;24.25;16.70;;;308.10;2304.00;;;;;;5043176;28;20022;-75
2022/10/14 04:59:01;;;;;;;25.52;19.27;;;308.10;2304.00;;;;;;5049198;28;20082;-76
2022/10/14 05:01:27;;;;;;;24.40;17.73;;;308.10;2304.00;;;;;;5053051;28;20470;-75
2022/10/14 05:03:52;;;;;;;22.67;16.55;;;332.80;2329.60;;;;;;5052827;28;20057;-75
2022/10/14 05:06:18;;;;;;;27.05;19.17;;;332.80;2329.60;;;;;;5052950;28;20025;-80
2022/10/14 05:08:44;;;;;;;28.90;18.05;;;333.30;2329.60;;;;;;5035083;28;20021;-78
2022/10/14 05:11:11;;;;;;;27.13;16.80;;;332.90;2329.60;;;;;;5052741;28;20583;-79
2022/10/14 05:13:37;;;;;;;27.95;19.35;;;332.90;2329.60;;;;;;5042832;28;20468;-76
2022/10/14 05:16:03;;;;;;;29.48;19.17;;;333.00;2329.60;;;;;;5049297;28;20029;-77
2022/10/14 05:18:29;;;;;;;28.10;19.35;;;333.00;2329.60;;;;;;5035225;28;20475;-80
2022/10/14 05:20:58;;;;;;;28.80;18.48;;;333.10;2329.60;;;;;;5021258;28;20087;-78
2022/10/14 05:23:24;;;;;;;26.90;19.13;;;333.20;2329.60;;;;;;5035186;28;20023;-77
2022/10/14 05:25:50;;;;;;;31.98;19.73;;;333.40;2329.60;;;;;;5052591;28;20118;-79
2022/10/14 05:28:17;;;;;;;30.08;19.80;;;333.40;2329.60;;;;;;5038503;28;20104;-77
2022/10/14 05:30:43;;;;;;;28.60;20.23;;;333.50;2329.60;;;;;;5023765;28;20470;-76
2022/10/14 05:33:09;;;;;;;27.60;19.77;;;333.60;2329.60;;;;;;5046601;28;20094;-75
2022/10/14 05:35:35;;;;;;;31.70;21.67;;;333.60;2329.60;;;;;;5041956;28;20056;-75
2022/10/14 05:38:01;;;;;;;34.13;21.35;;;333.60;2329.60;;;;;;5052015;28;20387;-75
2022/10/14 05:40:27;;;;;;;33.92;21.23;;;333.70;2329.60;;;;;;5038705;28;20082;-75
2022/10/14 05:42:53;;;;;;;32.35;21.05;;;358.40;2329.60;;;;;;5017387;28;20368;-76
2022/10/14 05:45:18;;;;;;;27.52;20.52;;;358.40;2329.60;;;;;;5001502;28;20132;-81
2022/10/14 05:47:45;;;;;;;29.80;20.23;;;358.40;2329.60;;;;;;5018499;28;20120;-76
2022/10/14 05:50:11;;;;;;;26.17;19.92;;;358.50;2329.60;;;;;;5024222;28;20033;-77
2022/10/14 05:52:39;;;;;;;31.75;20.10;;;358.60;2329.60;;;;;;5040843;28;20028;-77
2022/10/14 05:55:05;;;;;;;33.95;20.15;;;358.80;2329.60;;;;;;5050212;28;20021;-79
2022/10/14 05:57:32;;;;;;;30.05;20.13;;;358.80;2329.60;;;;;;5024487;28;20056;-76
2022/10/14 06:00:02;;;;;;;31.80;21.35;;;358.80;2329.60;;;;;;5022597;28;20022;-76
2022/10/14 06:02:29;;;;;;;31.25;21.17;;;358.80;2329.60;;;;;;5044968;28;20032;-75
2022/10/14 06:04:55;;;;;;;34.95;20.95;;;358.90;2329.60;;;;;;5043729;28;20052;-79
2022/10/14 06:07:20;;;;;;;31.48;19.75;;;359.00;2329.60;;;;;;5040046;28;20021;-77
2022/10/14 06:09:46;;;;;;;28.30;19.38;;;359.00;2329.60;;;;;;5025220;28;20021;-80
2022/10/14 06:12:12;;;;;;;33.10;20.88;;;359.10;2329.60;;;;;;5015749;28;20025;-76
2022/10/14 06:14:38;;;;;;;28.35;20.88;;;359.10;2329.60;;;;;;5023226;28;20091;-77
2022/10/14 06:17:05;;;;;;;33.60;20.60;;;359.10;2329.60;;;;;;4999313;28;20475;-75
2022/10/14 06:19:31;;;;;;;27.88;20.85;;;359.10;2329.60;;;;;;4997367;28;20022;-77
2022/10/14 06:21:57;;;;;;;30.13;20.10;;;359.10;2329.60;;;;;;5019747;28;20104;-76
2022/10/14 06:24:23;;;;;;;34.30;20.92;;;359.10;2329.60;;;;;;5017278;28;20109;-76
2022/10/14 06:26:49;;;;;;;25.77;19.10;;;359.20;2329.60;;;;;;5017016;28;20026;-77
2022/10/14 06:29:16;;;;;;;30.75;19.58;;;359.20;2329.60;;;;;;5022576;28;20018;-76
2022/10/14 06:31:42;;;;;;;29.48;20.08;;;359.00;2329.60;;;;;;5020882;28;20025;-76
2022/10/14 06:34:08;;;;;;;29.52;19.98;;;359.30;2329.60;;;;;;5000984;28;20479;-75
2022/10/14 06:36:35;;;;;;;32.15;20.95;;;384.00;2329.60;;;;;;5016948;28;20026;-76
2022/10/14 06:39:02;;;;;;;32.25;20.00;;;384.00;2329.60;;;;;;5023521;28;20104;-77
2022/10/14 06:41:28;;;;;;;31.25;19.02;;;384.00;2329.60;;;;;;5015273;28;20025;-75
2022/10/14 06:43:54;;;;;;;32.97;18.73;;;384.10;2329.60;;;;;;5038958;28;20036;-83
2022/10/14 06:46:19;;;;;;;25.30;17.95;;;384.20;2329.60;;;;;;5018427;28;20030;-78
2022/10/14 06:48:45;;;;;;;31.90;19.60;;;384.20;2329.60;;;;;;5004879;28;20407;-76
2022/10/14 06:51:11;;;;;;;34.85;19.92;;;384.30;2329.60;;;;;;5000254;28;20022;-76
2022/10/14 06:53:36;;;;;;;35.28;19.73;;;384.40;2329.60;;;;;;5023603;28;20070;-75
2022/10/14 06:56:06;;;;;;;31.25;19.15;;;384.40;2329.60;;;;;;5055710;28;20466;-77
2022/10/14 06:58:32;;;;;;;27.45;18.02;;;384.20;2329.60;;;;;;5024072;28;20482;-78
2022/10/14 07:01:05;;;;;;;28.48;18.42;;;384.60;2329.60;;;;;;5025231;28;20113;-76
2022/10/14 07:03:35;;;;;;;22.90;16.42;;;384.70;2329.60;;;;;;5020515;28;20049;-75
2022/10/14 07:06:05;;;;;;;28.48;16.95;;;384.70;2329.60;;;;;;5026103;28;20093;-77
2022/10/14 07:08:31;;;;;;;25.75;17.35;;;384.70;2329.60;;;;;;5005755;28;20057;-76
2022/10/14 07:10:57;;;;;;;28.63;18.33;;;384.80;2329.60;;;;;;5024528;28;20022;-78
2022/10/14 07:13:22;;;;;;;24.55;16.88;;;384.90;2329.60;;;;;;5003744;28;20025;-77
2022/10/14 07:15:48;;;;;;;23.25;16.20;;;409.60;2355.20;;;;;;5020062;28;20505;-74
2022/10/14 07:18:14;;;;;;;26.88;16.20;;;409.70;2355.20;;;;;;5020196;28;20029;-76
2022/10/14 07:20:40;;;;;;;27.35;15.27;;;409.70;2355.20;;;;;;5020608;28;20018;-76
2022/10/14 07:23:06;;;;;;;24.48;15.55;;;409.80;2355.20;;;;;;5025840;28;20447;-78
2022/10/14 07:25:32;;;;;;;34.88;16.70;;;409.90;2355.20;;;;;;5020379;28;20041;-75
2022/10/14 07:27:58;;;;;;;32.38;14.63;;;409.90;2355.20;;;;;;5029078;28;20033;-74
2022/10/14 07:30:24;;;;;;;23.55;14.80;;;410.00;2355.20;;;;;;5048426;28;20058;-75
2022/10/14 07:32:50;;;;;;;25.10;14.20;;;410.20;2355.20;;;;;;5029404;28;20029;-75
2022/10/14 07:35:17;;;;;;;22.25;13.43;;;410.20;2355.20;;;;;;5023993;28;20056;-80
2022/10/14 07:37:44;;;;;;;23.67;13.13;;;410.20;2355.20;;;;;;5014284;28;20021;-75
2022/10/14 07:40:11;;;;;;;18.67;13.45;;;410.30;2355.20;;;;;;5030179;28;20514;-79
2022/10/14 07:42:37;;;;;;;24.98;13.02;;;410.40;2355.20;;;;;;5041921;28;20013;-80
2022/10/14 07:45:04;;;;;;;20.38;12.38;;;410.40;2355.20;;;;;;5021359;28;20159;-75
2022/10/14 07:47:32;;;;;;;17.88;11.20;;;410.50;2355.20;;;;;;5017025;28;20022;-76
2022/10/14 07:49:59;;;;;;;22.52;11.82;;;410.50;2355.20;;;;;;5022246;28;20037;-75
2022/10/14 07:52:25;;;;;;;22.27;10.85;;;410.50;2355.20;;;;;;5020177;28;20608;-82
2022/10/14 07:54:51;;;;;;;20.33;11.98;;;410.50;2355.20;;;;;;5034082;28;20029;-75
2022/10/14 07:57:17;;;;;;;25.27;10.73;;;435.20;2355.20;;;;;;5042476;28;20111;-75
2022/10/14 07:59:43;;;;;;;19.58;11.07;;;435.20;2355.20;;;;;;5054177;28;20029;-75
2022/10/14 08:02:11;;;;;;;23.48;11.63;;;435.20;2355.20;;;;;;5054271;28;20422;-76
2022/10/14 08:04:36;;;;;;;23.85;11.73;;;435.20;2355.20;;;;;;5053827;28;20045;-76
2022/10/14 08:07:03;;;;;;;25.75;12.77;;;435.30;2355.20;;;;;;5054374;28;20024;-76
2022/10/14 08:09:29;;;;;;;19.80;11.70;;;435.40;2355.20;;;;;;5054040;28;20020;-76
2022/10/14 08:11:55;;;;;;;20.27;10.43;;;435.50;2355.20;;;;;;5036854;28;20080;-73
2022/10/14 08:14:21;;;;;;;21.73;11.82;;;435.50;2355.20;;;;;;5053902;28;20421;-75
2022/10/14 08:16:47;;;;;;;21.00;11.20;;;435.60;2355.20;;;;;;5054034;28;20025;-74
2022/10/14 08:19:13;;;;;;;20.45;9.80;;;435.60;2355.20;;;;;;5040103;28;20013;-74
2022/10/14 08:21:40;;;;;;;17.77;9.93;;;435.70;2355.20;;;;;;5043903;28;20085;-76
2022/10/14 08:24:06;;;;;;;31.52;12.15;;;435.70;2355.20;;;;;;5050419;28;20029;-74
2022/10/14 08:26:33;;;;;;;17.73;9.48;;;435.80;2355.20;;;;;;5053786;28;20017;-76
2022/10/14 08:29:01;;;;;;;15.18;9.32;;;435.90;2355.20;;;;;;5053946;28;20021;-75
2022/10/14 08:31:27;;;;;;;15.32;9.25;;;436.00;2355.20;;;;;;5035509;28;20048;-75
2022/10/14 08:33:53;;;;;;;17.05;9.80;;;436.00;2355.20;;;;;;5041082;28;20021;-81
2022/10/14 08:36:19;;;;;;;18.85;10.43;;;460.80;2380.80;;;;;;5034237;28;20029;-75
2022/10/14 08:38:46;;;;;;;17.00;10.15;;;460.80;2380.80;;;;;;5053394;28;20067;-76
2022/10/14 08:41:11;;;;;;;22.52;10.68;;;460.90;2380.80;;;;;;5044190;28;20033;-75
2022/10/14 08:44:05;;;;;;;21.23;10.52;;;460.90;2380.80;;;;;;5048790;28;20025;-77
2022/10/14 08:46:57;;;;;;;24.30;9.73;;;460.90;2380.80;;;;;;5053664;28;20521;-75
2022/10/14 08:49:27;;;;;;;14.27;9.95;;;460.90;2380.80;;;;;;5020640;28;20021;-82
2022/10/14 08:52:05;;;;;;;21.27;10.82;;;461.00;2380.80;;;;;;5046751;28;20032;-77
2022/10/14 08:54:43;;;;;;;17.52;10.65;;;461.00;2380.80;;;;;;5017901;28;20116;-75
2022/10/14 08:57:16;;;;;;;19.05;10.32;;;461.10;2380.80;;;;;;5018576;28;20077;-76
2022/10/14 08:59:43;;;;;;;28.10;11.32;;;461.10;2380.80;;;;;;5015179;28;20057;-76
2022/10/14 09:02:37;;;;;;;15.82;9.90;;;461.20;2380.80;;;;;;5021553;28;20096;-76
2022/10/14 09:05:03;;;;;;;16.23;10.43;;;461.40;2380.80;;;;;;5020682;28;20196;-76
2022/10/14 09:07:32;;;;;;;14.30;8.48;;;461.50;2380.80;;;;;;4997819;28;20109;-75
2022/10/14 09:10:09;;;;;;;17.92;9.43;;;461.50;2380.80;;;;;;5017819;28;20544;-76
2022/10/14 09:12:38;;;;;;;22.95;9.63;;;461.60;2380.80;;;;;;4994768;28;20022;-75
2022/10/14 09:15:07;;;;;;;18.15;10.13;;;461.70;2380.80;;;;;;5015101;28;20018;-76
2022/10/14 09:17:51;;;;;;;19.98;9.95;;;486.50;2380.80;;;;;;5017746;28;20026;-75
2022/10/14 09:20:23;;;;;;;20.25;9.13;;;486.50;2380.80;;;;;;5012496;28;20025;-75
2022/10/14 09:23:19;;;;;;;17.38;8.27;;;486.60;2380.80;;;;;;5016498;28;20369;-76
2022/10/14 09:26:06;;;;;;;15.38;9.13;;;486.60;2380.80;;;;;;5019067;28;20032;-75
2022/10/14 09:28:38;;;;;;;13.05;8.65;;;486.50;2380.80;;;;;;4999466;28;20208;-75
2022/10/14 09:31:06;;;;;;;18.13;8.68;;;486.60;2380.80;;;;;;5017419;28;20072;-76
2022/10/14 09:33:34;;;;;;;18.05;9.25;;;486.70;2380.80;;;;;;5017257;28;20037;-78
2022/10/14 09:36:00;;;;;;;17.02;8.23;;;486.80;2380.80;;;;;;5023768;28;20087;-76
2022/10/14 09:38:26;;;;;;;15.35;8.73;;;486.80;2380.80;;;;;;5052801;28;20541;-72
2022/10/14 09:40:57;;;;;;;19.77;8.57;;;487.00;2380.80;;;;;;5045480;28;20108;-75
2022/10/14 09:43:26;;;;;;;21.40;8.88;;;487.10;2380.80;;;;;;5045820;28;20028;-76
2022/10/14 09:46:01;;;;;;;17.02;8.93;;;487.00;2380.80;;;;;;5015187;28;20103;-76
2022/10/14 09:48:33;;;;;;;17.05;9.00;;;487.00;2380.80;;;;;;5021933;28;20018;-76
2022/10/14 09:51:02;;;;;;;20.30;8.15;;;487.10;2380.80;;;;;;5015156;28;20075;-76
2022/10/14 09:53:30;;;;;;;12.25;7.95;;;487.10;2380.80;;;;;;5042633;28;20082;-75
2022/10/14 09:56:03;;;;;;;16.27;7.72;;;487.30;2380.80;;;;;;5029723;28;20032;-78
2022/10/14 09:58:45;;;;;;;16.50;8.52;;;512.10;2355.20;;;;;;5017507;28;20500;-75
2022/10/14 10:01:19;;;;;;;17.38;7.32;;;512.20;2329.60;;;;;;5019786;28;20475;-76
2022/10/14 10:03:47;;;;;;;19.23;8.30;;;512.40;2278.40;;;;;;5017173;28;20041;-75
2022/10/14 10:06:20;;;;;;;22.63;9.07;;;512.40;2150.40;;;;;;5017566;28;20037;-76
2022/10/14 10:08:52;;;;;;;18.15;8.00;;;512.50;2201.60;;;;;;5020563;28;20424;-75
2022/10/14 10:11:28;;;;;;;15.90;7.60;;;512.40;2355.20;;;;;;5045017;28;20025;-80
2022/10/14 10:13:54;;;;;;;12.63;8.10;;;512.60;2227.20;;;;;;5051892;28;20017;-76
2022/10/14 10:16:30;;;;;;;16.33;7.20;;;512.80;2252.80;;;;;;5052081;28;20025;-81
2022/10/14 10:18:56;;;;;;;13.52;6.57;;;537.60;2201.60;;;;;;5038156;28;20021;-75
2022/10/14 10:21:25;;;;;;;12.15;7.40;;;537.90;2073.60;;;;;;5051842;28;20095;-78
2022/10/14 10:23:59;;;;;;;15.48;7.15;;;537.80;2124.80;;;;;;5047763;28;20021;-76
2022/10/14 10:26:30;;;;;;;15.02;7.53;;;538.00;2048.00;;;;;;5025005;28;20033;-75
2022/10/14 10:28:57;;;;;;;14.02;7.53;;;538.00;1945.60;;;;;;5036276;28;20013;-75
2022/10/14 10:31:41;;;;;;;16.05;6.97;;;538.00;2022.40;;;;;;5035935;28;20068;-76
2022/10/14 10:34:31;;;;;;;11.77;7.10;;;538.30;1971.20;;;;;;5054917;28;20048;-76
2022/10/14 10:37:28;;;;;;;12.10;6.72;;;538.40;1894.40;;;;;;5055481;28;20107;-76
2022/10/14 10:40:07;;;;;;;10.82;6.93;;;538.40;1817.60;;;;;;5036133;28;20490;-77
2022/10/14 10:42:38;;;;;;;11.95;7.60;;;538.50;1817.60;;;;;;5021578;28;20455;-75
2022/10/14 10:45:25;;;;;;;12.15;6.43;;;563.30;1945.60;;;;;;5027994;28;20033;-75
2022/10/14 10:47:56;;;;;;;;;;;563.40;1843.20;;;;;;5021292;28;20017;-76
2022/10/14 10:50:35;;;;;;;11.25;5.05;;;563.20;1817.60;;;;;;5022764;28;19906;-75
2022/10/14 10:53:24;;;;;;;13.07;6.00;;;563.20;1792.00;;;;;;5024629;28;20352;-75
2022/10/14 10:55:56;;;;;;;19.75;6.68;;;563.40;1740.80;;;;;;5023018;28;20104;-75
2022/10/14 10:58:41;;;;;;;16.65;6.10;;;563.50;1740.80;;;;;;5018042;28;20045;-80
2022/10/14 11:01:13;;;;;;;14.73;6.65;;;563.60;1740.80;;;;;;5021303;28;20026;-78
2022/10/14 11:03:51;;;;;;;12.43;6.55;;;563.50;1715.20;;;;;;5023249;28;20057;-75
2022/10/14 11:13:06;;;;;;;11.38;5.20;;;563.80;1638.40;;;;;;5023836;28;20032;-75
2022/10/14 11:15:43;;;;;;;13.57;6.10;;;563.80;1638.40;;;;;;5009978;28;20030;-75
2022/10/14 11:18:13;;;;;;;14.27;5.28;;;564.00;1638.40;;;;;;5055061;28;20025;-75
2022/10/14 11:21:14;;;;;;;14.63;5.22;;;588.80;1638.40;;;;;;5053724;28;20067;-75
2022/10/14 11:24:17;;;;;;;8.40;5.22;;;588.90;1612.80;;;;;;4955031;29;20046;-75
2022/10/14 11:27:11;;;;;;;19.35;6.15;;;589.00;1612.80;;;;;;4955059;29;20035;-79
2022/10/14 11:30:02;;;;;;;20.75;5.90;;;588.90;1612.80;;;;;;4878852;29;20175;-75
2022/10/14 11:32:42;;;;;;;14.88;5.55;;;589.20;1638.40;;;;;;4878780;29;20396;-75
2022/10/14 11:35:23;;;;;;;11.25;5.55;;;589.30;1612.80;;;;;;4879139;29;20439;-79
2022/10/14 11:38:07;;;;;;;12.55;5.97;;;589.20;1587.20;;;;;;4878961;29;20060;-80
2022/10/14 11:40:45;;;;;;;12.80;5.68;;;589.00;1561.60;;;;;;4878148;29;20037;-76
2022/10/14 11:43:25;;;;;;;17.25;5.90;;;588.90;1612.80;;;;;;4878014;29;20515;-75
2022/10/14 11:46:21;;;;;;;12.57;5.47;;;588.80;1638.40;;;;;;4878846;29;20053;-75
2022/10/14 11:49:00;;;;;;;13.98;5.43;;;589.00;1638.40;;;;;;4841744;29;20116;-75
2022/10/14 11:51:43;;;;;;;12.90;6.05;;;589.20;1612.80;;;;;;4838365;29;20034;-80
2022/10/14 11:54:32;;;;;;;12.00;6.93;;;589.40;1612.80;;;;;;4825258;29;20038;-81
2022/10/14 11:57:06;;;;;;;11.80;6.10;;;589.30;1612.80;;;;;;4833325;29;20026;-76
2022/10/14 11:59:55;;;;;;;12.18;5.35;;;589.50;1561.60;;;;;;4832570;29;20560;-75
2022/10/14 12:02:32;;;;;;;8.50;4.88;;;589.40;1561.60;;;;;;4909426;29;20036;-76
2022/10/14 12:05:36;;;;;;;10.95;5.55;;;589.30;1536.00;;;;;;4909456;29;20108;-76
2022/10/14 12:08:15;;;;;;;13.70;6.05;;;589.00;1561.60;;;;;;4959444;28;20035;-76
2022/10/14 12:10:57;;;;;;;15.65;5.78;;;589.00;1587.20;;;;;;4959415;28;20533;-76
2022/10/14 12:13:37;;;;;;;11.68;5.20;;;589.10;1587.20;;;;;;4961310;28;20037;-76
2022/10/14 12:16:09;;;;;;;12.88;5.60;;;589.20;1612.80;;;;;;4961713;28;20035;-80
2022/10/14 12:18:35;;;;;;;14.00;6.68;;;589.30;1612.80;;;;;;4961262;28;20031;-76
2022/10/14 12:21:16;;;;;;;14.23;6.60;;;589.20;1587.20;;;;;;4960820;28;20061;-76
2022/10/14 12:23:47;;;;;;;21.23;6.80;;;588.90;1587.20;;;;;;4963344;28;20113;-75
2022/10/14 12:26:36;;;;;;;12.35;6.38;;;589.10;1612.80;;;;;;5014187;28;20522;-76